Kalamazoo Township, MI

8:17 PM EST on December 22, 2014 (GMT -0500)
Westwood | Change Station
CLOSE
Current Station
Personal Weather Station
Location: Kalamazoo, MI
Elevation: 955 ft
Nearby Weather Stations

Elev 955 ft 42.30 °N, 85.62 °W | Updated 6 seconds ago

Rain
Rain
36.0 °F
Feels Like 36 °F
N
2.2
Wind Variable Wind from NE
Gusts 2.2 mph

Today
High -- | Low -- °F
--% Chance of Precip.
Yesterday
High -- | Low -- °F
Precip. -- in
8:08 AM 5:13 PM
New Moon, 1% visible
Pressure 29.85 in
Visibility 5.0 miles
Clouds Overcast 4300 ft
Windchill 36 °F
Dew Point 32 °F
Humidity 87%
Rainfall 0.05 in
Snow Depth Not available.
UV 0 out of 12
Pollen .10 out of 12
Air Quality Not available.
Flu Activity Not available.
METAR KAZO 230053Z 11006KT 5SM -RA OVC043 03/00 A2982 RMK AO2 RAB2356 SLP106 P0000 T00280000

More Conditions Fewer Conditions

Pressure 29.85 in
Visibility 5.0 miles
Clouds Overcast 4300 ft
Windchill 36 °F
Dew Point 32 °F
Humidity 87%
Rainfall 0.05 in
Snow Depth Not available.
UV 0 out of 12
Pollen .10 out of 12
Air Quality Not available.
Flu Activity Not available.
METAR KAZO 230053Z 11006KT 5SM -RA OVC043 03/00 A2982 RMK AO2 RAB2356 SLP106 P0000 T00280000

More Conditions Fewer Conditions

10-Day Weather Forecast

Almanac

Astronomy

Dec. 22, 2014 Rise Set
Actual Time
Civil Twilight
Nautical Twilight
Astronomical Twilight
Moon
Length of Visible Light
Length of Day
Tomorrow will be .
, % of the Moon is Illuminated

Today's Extremes

State Highs State Lows

Community

WunderPhotos

Upload Photos

1,779,745 photos uploaded!

WunderBlogs® & News

Nearby

Air Quality

  Air Quality AQ Index Pollutant
Not available.

Snow Depth

Station Depth Elevation

Earthquake Activity

City Distance Mag. Time & Date
Minimum magnitude displayed is 2.5.

Coastal Water Temperatures

Place Temperature

Nearby Weather Stations